createdAt,value
2019-06-07T00:00:47.642Z,69.26
2019-06-07T00:05:50.031Z,69.55
2019-06-07T00:10:52.345Z,68.93
2019-06-07T00:15:54.634Z,69.52
2019-06-07T00:20:56.809Z,69.29
2019-06-07T00:25:59.313Z,69.22
2019-06-07T00:31:01.491Z,69.04
2019-06-07T00:36:04.011Z,69.17
2019-06-07T00:41:06.207Z,69.41
2019-06-07T00:46:08.339Z,69.50
2019-06-07T00:51:11.630Z,69.44
2019-06-07T00:56:14.019Z,69.47
2019-06-07T01:01:20.125Z,69.37
2019-06-07T01:06:22.921Z,69.41
2019-06-07T01:11:26.909Z,69.25
2019-06-07T01:16:53.245Z,69.00
2019-06-07T01:26:35.411Z,68.58
2019-06-07T01:31:38.667Z,68.55
2019-06-07T01:36:41.639Z,68.66
2019-06-07T01:41:44.642Z,68.57
2019-06-07T01:46:47.577Z,68.25
2019-06-07T01:51:50.143Z,67.97
2019-06-07T01:56:52.862Z,67.96
2019-06-07T02:01:55.059Z,67.85
2019-06-07T02:06:57.834Z,67.90
2019-06-07T02:12:00.831Z,68.29
2019-06-07T02:17:03.224Z,68.37
2019-06-07T02:22:05.670Z,68.62
2019-06-07T02:27:08.811Z,68.77
2019-06-07T02:32:11.516Z,69.01
2019-06-07T02:37:14.531Z,69.22
2019-06-07T02:42:16.817Z,69.34
2019-06-07T02:47:19.098Z,69.58
2019-06-07T02:52:24.239Z,69.54
2019-06-07T02:57:28.326Z,69.92
2019-06-07T03:02:33.514Z,69.88
2019-06-07T03:07:39.361Z,70.07
2019-06-07T03:12:44.671Z,70.31
2019-06-07T03:18:03.798Z,70.53
2019-06-07T03:23:06.264Z,70.73
2019-06-07T03:28:09.372Z,70.62
2019-06-07T03:33:12.125Z,70.59
2019-06-07T03:38:15.075Z,70.92
2019-06-07T03:43:17.638Z,70.84
2019-06-07T03:48:19.957Z,70.93
2019-06-07T03:53:22.412Z,70.72
2019-06-07T03:58:31.848Z,70.20
2019-06-07T04:03:36.151Z,70.30
2019-06-07T04:08:39.671Z,70.36
2019-06-07T04:13:42.730Z,70.21
2019-06-07T04:18:44.223Z,70.03
2019-06-07T04:23:46.893Z,70.29
2019-06-07T04:33:56.375Z,70.58
2019-06-07T04:39:00.396Z,70.58
2019-06-07T04:44:05.304Z,70.52
2019-06-07T04:49:08.163Z,70.52
2019-06-07T04:54:10.360Z,70.39
2019-06-07T04:59:13.048Z,70.39
2019-06-07T05:04:15.810Z,70.07
2019-06-07T05:09:19.038Z,70.00
2019-06-07T05:14:22.274Z,69.95
2019-06-07T05:19:24.542Z,69.74
2019-06-07T05:24:27.146Z,69.55
2019-06-07T05:29:30.804Z,69.31
2019-06-07T05:34:34.568Z,69.37
2019-06-07T05:39:40.420Z,69.16
2019-06-07T05:44:45.490Z,68.58
2019-06-07T05:49:47.569Z,68.06
2019-06-07T05:54:50.476Z,67.80
2019-06-07T05:59:53.377Z,67.81
2019-06-07T06:04:56.470Z,67.28
2019-06-07T06:09:58.627Z,66.63
2019-06-07T06:15:01.278Z,65.87
2019-06-07T06:20:04.898Z,64.97
2019-06-07T06:30:15.819Z,65.00
2019-06-07T06:35:18.535Z,64.68
2019-06-07T06:40:21.781Z,64.07
2019-06-07T06:45:24.382Z,63.44
2019-06-07T06:50:26.865Z,62.50
2019-06-07T06:55:30.144Z,62.34
2019-06-07T07:00:53.479Z,62.35
2019-06-07T07:05:54.998Z,61.89
2019-06-07T07:10:57.498Z,61.55
2019-06-07T07:16:00.679Z,60.96
2019-06-07T07:21:03.165Z,60.55
2019-06-07T07:26:05.456Z,58.63
2019-06-07T07:31:07.783Z,58.63
2019-06-07T07:36:28.698Z,49.22
2019-06-07T07:41:16.013Z,43.68
2019-06-07T07:46:35.508Z,39.43
2019-06-07T07:51:22.771Z,35.22
2019-06-07T07:56:25.299Z,34.85
2019-06-07T08:01:27.465Z,33.31
2019-06-07T08:06:29.978Z,31.80
2019-06-07T08:11:32.513Z,30.50
2019-06-07T08:16:34.856Z,31.33
2019-06-07T08:21:38.671Z,32.47
2019-06-07T08:26:41.263Z,29.61
2019-06-07T08:31:43.428Z,32.89
2019-06-07T08:36:45.645Z,31.14
2019-06-07T08:41:59.323Z,31.51
2019-06-07T08:46:56.584Z,30.67
2019-06-07T08:52:03.061Z,31.72
2019-06-07T08:57:17.585Z,31.34
2019-06-07T09:02:20.949Z,32.32
2019-06-07T09:07:19.191Z,31.39
2019-06-07T09:12:14.523Z,30.80
2019-06-07T09:17:17.418Z,31.61
2019-06-07T09:22:19.902Z,32.70
2019-06-07T09:27:22.552Z,33.00
2019-06-07T09:32:25.601Z,32.52
2019-06-07T09:42:32.429Z,35.23
2019-06-07T09:47:34.686Z,35.11
2019-06-07T09:52:57.195Z,32.29
2019-06-07T09:57:41.980Z,31.35
2019-06-07T10:02:44.280Z,31.32
2019-06-07T10:08:02.611Z,31.30
2019-06-07T10:12:51.628Z,30.88
2019-06-07T10:17:54.487Z,29.90
2019-06-07T10:22:56.783Z,30.01
2019-06-07T10:28:00.036Z,29.44
2019-06-07T10:33:04.670Z,29.21
2019-06-07T10:38:06.873Z,29.46
2019-06-07T10:43:12.609Z,29.32
2019-06-07T10:48:13.944Z,28.08
2019-06-07T10:53:16.475Z,29.03
2019-06-07T10:58:19.871Z,28.99
2019-06-07T11:03:22.395Z,29.61
2019-06-07T11:08:24.821Z,29.49
2019-06-07T11:13:27.603Z,29.56
2019-06-07T11:18:29.979Z,29.53
2019-06-07T11:23:32.529Z,28.86
2019-06-07T11:28:34.976Z,29.09
2019-06-07T11:33:37.322Z,30.12
2019-06-07T11:38:40.103Z,30.45
2019-06-07T11:43:42.315Z,30.64
2019-06-07T11:48:44.564Z,31.24
2019-06-07T11:53:47.097Z,31.04
2019-06-07T11:58:49.718Z,30.92
2019-06-07T12:03:52.787Z,31.08
2019-06-07T12:08:55.277Z,32.13
2019-06-07T12:13:58.087Z,32.30
2019-06-07T12:19:00.690Z,31.80
2019-06-07T12:24:03.469Z,31.39
2019-06-07T12:29:06.111Z,30.96
2019-06-07T12:34:09.496Z,31.44
2019-06-07T12:39:12.341Z,31.85
2019-06-07T12:44:16.593Z,32.06
2019-06-07T12:49:19.216Z,32.27
2019-06-07T12:54:23.835Z,32.26
2019-06-07T12:59:26.297Z,32.13
2019-06-07T13:04:28.851Z,30.13
2019-06-07T13:09:31.285Z,31.98
2019-06-07T13:14:33.785Z,32.42
2019-06-07T13:19:36.686Z,33.41
2019-06-07T13:24:38.879Z,33.17
2019-06-07T13:29:41.390Z,32.74
2019-06-07T13:34:43.581Z,33.67
2019-06-07T13:39:46.095Z,33.44
2019-06-07T13:44:49.635Z,33.86
2019-06-07T13:49:55.284Z,34.31
2019-06-07T13:54:57.316Z,34.11
2019-06-07T14:00:00.344Z,34.17
2019-06-07T14:05:03.956Z,34.74
2019-06-07T14:10:06.941Z,34.83
2019-06-07T14:15:11.929Z,34.78
2019-06-07T14:20:15.293Z,35.22
2019-06-07T14:25:18.535Z,35.35
2019-06-07T14:30:21.835Z,35.13
2019-06-07T14:35:24.518Z,34.92
2019-06-07T14:40:27.931Z,34.16
2019-06-07T14:45:32.608Z,34.16
2019-06-07T14:50:34.878Z,34.39
2019-06-07T14:55:37.410Z,34.97
2019-06-07T15:00:42.188Z,35.80
2019-06-07T15:05:45.145Z,34.85
2019-06-07T15:10:48.252Z,35.54
2019-06-07T15:15:50.656Z,35.41
2019-06-07T15:20:52.962Z,35.64
2019-06-07T15:25:55.165Z,35.75
2019-06-07T15:30:57.612Z,36.33
2019-06-07T15:36:00.182Z,37.10
2019-06-07T15:41:02.366Z,36.93
2019-06-07T15:46:04.550Z,37.24
2019-06-07T15:51:06.721Z,37.10
2019-06-07T15:56:09.541Z,37.74
2019-06-07T16:01:12.452Z,38.04
2019-06-07T16:06:15.125Z,37.60
2019-06-07T16:11:17.286Z,37.36
2019-06-07T16:16:19.846Z,37.74
2019-06-07T16:21:22.123Z,38.03
2019-06-07T16:26:24.890Z,38.08
2019-06-07T16:31:27.400Z,37.96
2019-06-07T16:36:29.571Z,38.18
2019-06-07T16:41:32.201Z,38.42
2019-06-07T16:46:34.398Z,38.08
2019-06-07T16:51:37.241Z,38.19
2019-06-07T16:56:45.403Z,38.34
2019-06-07T17:01:43.697Z,38.57
2019-06-07T17:06:46.507Z,39.16
2019-06-07T17:11:49.217Z,39.09
2019-06-07T17:16:51.727Z,39.48
2019-06-07T17:21:54.077Z,39.60
2019-06-07T17:26:56.966Z,39.89
2019-06-07T17:31:59.674Z,40.04
2019-06-07T17:37:02.491Z,39.83
2019-06-07T17:42:05.057Z,40.37
2019-06-07T17:47:07.712Z,40.61
2019-06-07T17:52:10.564Z,40.89
2019-06-07T17:57:13.044Z,41.16
2019-06-07T18:02:15.911Z,41.38
2019-06-07T18:07:20.819Z,41.83
2019-06-07T18:12:24.296Z,42.00
2019-06-07T18:17:34.425Z,42.16
2019-06-07T18:22:32.382Z,42.02
2019-06-07T18:27:35.271Z,42.61
2019-06-07T18:32:37.787Z,43.03
2019-06-07T18:37:40.109Z,42.94
2019-06-07T18:42:44.058Z,43.23
2019-06-07T18:47:47.838Z,43.52
2019-06-07T18:52:50.901Z,43.56
2019-06-07T18:57:54.504Z,43.85
2019-06-07T19:02:58.086Z,44.01
2019-06-07T19:08:00.814Z,44.48
2019-06-07T19:13:04.043Z,44.86
2019-06-07T19:18:07.210Z,45.14
2019-06-07T19:23:09.772Z,45.47
2019-06-07T19:28:13.098Z,45.92
2019-06-07T19:33:15.608Z,46.16
2019-06-07T19:38:18.555Z,46.51
2019-06-07T19:43:21.693Z,46.88
2019-06-07T19:48:24.542Z,47.35
2019-06-07T19:53:27.783Z,47.46
2019-06-07T19:58:30.765Z,47.80
2019-06-07T20:03:34.055Z,48.23
2019-06-07T20:08:42.180Z,48.62
2019-06-07T20:13:45.412Z,49.12
2019-06-07T20:18:48.342Z,49.45
2019-06-07T20:23:51.977Z,49.85
2019-06-07T20:28:55.156Z,50.30
2019-06-07T20:33:58.693Z,50.45
2019-06-07T20:39:02.205Z,50.63
2019-06-07T20:44:08.112Z,50.96
2019-06-07T20:49:11.422Z,51.37
2019-06-07T20:54:15.194Z,51.68
2019-06-07T20:59:19.026Z,51.87
2019-06-07T21:04:23.388Z,52.52
2019-06-07T21:09:27.107Z,53.05
2019-06-07T21:14:30.327Z,53.54
2019-06-07T21:19:33.368Z,54.02
2019-06-07T21:24:36.109Z,54.32
2019-06-07T21:29:38.538Z,54.69
2019-06-07T21:34:41.181Z,55.33
2019-06-07T21:39:44.472Z,55.45
2019-06-07T21:44:47.731Z,55.68
2019-06-07T21:49:50.176Z,56.04
2019-06-07T21:54:53.035Z,56.30
2019-06-07T21:59:55.271Z,56.48
2019-06-07T22:04:57.717Z,56.68
2019-06-07T22:10:00.214Z,56.98
2019-06-07T22:15:17.129Z,57.15
2019-06-07T22:20:08.637Z,57.35
2019-06-07T22:25:11.224Z,57.89
2019-06-07T22:30:14.555Z,58.14
2019-06-07T22:35:16.843Z,58.48
2019-06-07T22:40:19.868Z,58.73
2019-06-07T22:45:22.173Z,59.04
2019-06-07T22:50:25.312Z,59.36
2019-06-07T22:55:27.641Z,59.70
2019-06-07T23:00:32.026Z,60.06
2019-06-07T23:05:34.212Z,60.32
2019-06-07T23:10:36.413Z,60.63
2019-06-07T23:15:38.591Z,60.77
2019-06-07T23:20:40.748Z,61.20
2019-06-07T23:25:42.891Z,61.85
2019-06-07T23:30:45.056Z,62.05
2019-06-07T23:35:47.891Z,62.40
2019-06-07T23:40:50.326Z,62.67
2019-06-07T23:45:53.195Z,62.97
2019-06-07T23:50:55.507Z,62.89
2019-06-07T23:55:59.542Z,63.14
